Time;durP1;ratioP1;P1;durP2;ratioP2;P2;SDS_P1;SDS_P2;PMS_P1;PMS_P2;Temp;Humidity;BMP_temperature;BMP_pressure;BME280_temperature;BME280_humidity;BME280_pressure;Samples;Min_cycle;Max_cycle;Signal;HPM_P1;HPM_P2
2023/12/24 00:01:12;;;;;;;43.60;9.55;;;14.70;89.10;;;;;;5092622;28;20040;-79
2023/12/24 00:03:38;;;;;;;41.10;8.75;;;14.70;89.70;;;;;;5092164;28;20500;-79
2023/12/24 00:06:05;;;;;;;32.85;8.95;;;14.70;89.70;;;;;;5092550;28;20060;-79
2023/12/24 00:08:31;;;;;;;49.72;9.13;;;14.70;89.50;;;;;;5092620;28;20028;-80
2023/12/24 00:10:57;;;;;;;46.72;10.27;;;14.70;89.60;;;;;;5092495;28;20032;-81
2023/12/24 00:13:24;;;;;;;39.88;9.13;;;14.70;89.60;;;;;;5092177;28;20488;-79
2023/12/24 00:15:50;;;;;;;45.55;9.73;;;14.70;89.60;;;;;;5092299;28;20055;-79
2023/12/24 00:18:16;;;;;;;45.55;8.88;;;14.70;89.40;;;;;;5092288;28;20489;-81
2023/12/24 00:20:42;;;;;;;41.08;9.57;;;14.70;89.50;;;;;;5074166;28;20050;-81
2023/12/24 00:23:09;;;;;;;38.50;9.27;;;14.70;89.30;;;;;;5092770;28;20032;-79
2023/12/24 00:25:35;;;;;;;56.00;9.88;;;14.70;89.40;;;;;;5074629;28;20051;-80
2023/12/24 00:28:02;;;;;;;45.88;8.45;;;14.70;89.40;;;;;;5074349;28;20120;-79
2023/12/24 00:30:27;;;;;;;40.17;8.80;;;14.60;89.40;;;;;;5098388;28;20032;-81
2023/12/24 00:32:58;;;;;;;47.05;9.02;;;14.60;89.40;;;;;;5097899;28;20087;-79
2023/12/24 00:35:25;;;;;;;39.47;8.75;;;14.60;89.50;;;;;;5097575;28;20060;-78
2023/12/24 00:37:51;;;;;;;42.22;9.05;;;14.70;89.50;;;;;;5075822;28;20066;-79
2023/12/24 00:40:18;;;;;;;30.08;8.50;;;14.70;89.40;;;;;;5096045;28;20040;-79
2023/12/24 00:42:44;;;;;;;41.25;8.88;;;14.70;89.50;;;;;;5096039;28;20029;-79
2023/12/24 00:45:13;;;;;;;42.72;8.60;;;14.70;89.50;;;;;;5096216;28;20036;-80
2023/12/24 00:47:39;;;;;;;40.08;8.40;;;14.70;89.50;;;;;;5077779;28;20063;-80
2023/12/24 00:50:09;;;;;;;44.63;8.73;;;14.70;89.50;;;;;;5096412;28;20029;-79
2023/12/24 00:52:37;;;;;;;43.70;9.10;;;14.70;89.40;;;;;;5096373;28;20032;-80
2023/12/24 00:55:04;;;;;;;45.92;8.45;;;14.70;89.60;;;;;;5077737;28;20046;-79
2023/12/24 00:57:30;;;;;;;42.55;8.73;;;14.70;89.60;;;;;;5095827;28;20107;-78
2023/12/24 00:59:56;;;;;;;50.55;9.80;;;14.70;89.40;;;;;;5095527;28;20197;-79
2023/12/24 01:02:22;;;;;;;40.95;8.95;;;14.70;89.50;;;;;;5096743;28;20039;-80
2023/12/24 01:04:47;;;;;;;36.60;8.23;;;14.70;89.40;;;;;;5096465;28;20489;-80
2023/12/24 01:07:13;;;;;;;42.80;8.57;;;14.70;89.50;;;;;;5095792;28;20082;-80
2023/12/24 01:09:39;;;;;;;42.85;8.95;;;14.70;89.70;;;;;;5096326;28;20028;-80
2023/12/24 01:12:06;;;;;;;52.83;9.30;;;14.70;89.80;;;;;;5095500;28;20050;-78
2023/12/24 01:14:32;;;;;;;44.63;9.48;;;14.70;89.90;;;;;;5077060;28;20036;-80
2023/12/24 01:16:59;;;;;;;50.38;9.02;;;14.70;89.80;;;;;;5095482;28;20032;-81
2023/12/24 01:19:26;;;;;;;47.42;10.25;;;14.70;89.90;;;;;;5095231;28;20039;-79
2023/12/24 01:21:54;;;;;;;42.72;9.88;;;14.60;89.90;;;;;;5095422;28;20040;-80
2023/12/24 01:24:20;;;;;;;44.42;9.60;;;14.60;89.80;;;;;;5095047;28;20032;-79
2023/12/24 01:26:46;;;;;;;45.85;10.07;;;14.60;89.90;;;;;;5095305;28;20086;-80
2023/12/24 01:29:12;;;;;;;43.58;10.30;;;14.60;89.90;;;;;;5095121;28;20032;-78
2023/12/24 01:31:38;;;;;;;40.67;10.43;;;14.60;90.00;;;;;;5095565;28;20043;-80
2023/12/24 01:34:03;;;;;;;37.97;9.93;;;14.60;90.00;;;;;;5095372;28;20032;-79
2023/12/24 01:36:29;;;;;;;39.88;8.93;;;14.60;90.00;;;;;;5076741;28;20047;-78
2023/12/24 01:38:55;;;;;;;39.75;9.90;;;14.60;90.00;;;;;;5094966;28;20028;-78
2023/12/24 01:41:21;;;;;;;42.35;10.55;;;14.60;89.90;;;;;;5094449;28;20032;-78
2023/12/24 01:43:47;;;;;;;33.28;9.07;;;14.60;90.00;;;;;;5094753;28;20468;-79
2023/12/24 01:46:19;;;;;;;45.28;9.68;;;14.60;90.00;;;;;;5094794;28;20036;-78
2023/12/24 01:48:45;;;;;;;44.90;10.73;;;14.60;90.10;;;;;;5094210;28;20445;-79
2023/12/24 01:51:12;;;;;;;39.33;8.68;;;14.60;90.00;;;;;;5094398;28;20034;-78
2023/12/24 01:53:38;;;;;;;53.40;9.95;;;14.60;90.00;;;;;;5094583;28;20530;-78
2023/12/24 01:56:05;;;;;;;46.13;9.45;;;14.60;90.10;;;;;;5076326;28;20397;-78
2023/12/24 01:58:31;;;;;;;41.53;9.02;;;14.60;90.10;;;;;;5094573;28;20025;-78
2023/12/24 02:00:57;;;;;;;49.55;9.65;;;14.60;90.10;;;;;;5094324;28;20190;-78
2023/12/24 02:03:23;;;;;;;39.10;9.70;;;14.60;90.10;;;;;;5094334;28;20036;-79
2023/12/24 02:05:50;;;;;;;40.40;8.90;;;14.60;90.10;;;;;;5094379;28;20029;-79
2023/12/24 02:08:21;;;;;;;44.10;9.40;;;14.60;90.20;;;;;;5094587;28;20119;-79
2023/12/24 02:10:47;;;;;;;46.65;9.43;;;14.60;90.30;;;;;;5080274;28;20028;-78
2023/12/24 02:13:14;;;;;;;37.80;8.85;;;14.60;90.20;;;;;;5097962;28;20067;-78
2023/12/24 02:15:40;;;;;;;35.15;8.63;;;14.60;90.20;;;;;;5094908;28;20037;-78
2023/12/24 02:18:07;;;;;;;37.05;9.10;;;14.60;90.30;;;;;;5094175;28;20362;-80
2023/12/24 02:20:33;;;;;;;34.47;8.25;;;14.60;90.30;;;;;;5094440;28;20040;-79
2023/12/24 02:22:58;;;;;;;42.83;9.23;;;14.60;90.30;;;;;;5094346;28;20040;-78
2023/12/24 02:25:25;;;;;;;47.40;8.82;;;14.60;90.40;;;;;;5095278;28;20111;-78
2023/12/24 02:28:06;;;;;;;38.72;8.65;;;14.60;90.40;;;;;;5095236;28;20028;-78
2023/12/24 02:30:39;;;;;;;35.83;8.85;;;14.60;90.40;;;;;;5094141;28;20127;-78
2023/12/24 02:33:07;;;;;;;33.95;7.82;;;14.60;90.40;;;;;;5093963;28;20036;-78
2023/12/24 02:35:37;;;;;;;38.10;8.57;;;14.60;90.40;;;;;;5094110;28;20493;-78
2023/12/24 02:38:03;;;;;;;41.55;9.45;;;14.60;90.50;;;;;;5075885;28;20028;-79
2023/12/24 02:40:29;;;;;;;44.65;8.15;;;14.60;90.40;;;;;;5093799;28;20118;-78
2023/12/24 02:42:54;;;;;;;42.88;8.55;;;14.60;90.50;;;;;;5093408;28;20040;-79
2023/12/24 02:45:20;;;;;;;37.90;8.43;;;14.60;90.40;;;;;;5093805;28;20464;-79
2023/12/24 02:47:46;;;;;;;37.83;8.55;;;14.60;90.50;;;;;;5093677;28;20035;-79
2023/12/24 02:50:11;;;;;;;41.50;8.85;;;14.60;90.50;;;;;;5093439;28;20074;-79
2023/12/24 02:52:37;;;;;;;42.75;8.90;;;14.60;90.50;;;;;;5093863;28;20031;-78
2023/12/24 02:55:03;;;;;;;31.67;7.40;;;14.60;90.50;;;;;;5094234;28;20036;-78
2023/12/24 02:57:29;;;;;;;42.90;8.57;;;14.60;90.60;;;;;;5098422;28;20405;-77
2023/12/24 02:59:55;;;;;;;38.28;9.02;;;14.60;90.60;;;;;;5100863;28;20444;-78
2023/12/24 03:02:20;;;;;;;39.97;9.07;;;14.60;90.60;;;;;;5099861;28;20405;-78
2023/12/24 03:04:46;;;;;;;43.60;9.13;;;14.60;90.70;;;;;;5093798;28;20055;-77
2023/12/24 03:07:13;;;;;;;36.97;8.20;;;14.60;90.70;;;;;;5093977;28;20193;-79
2023/12/24 03:09:39;;;;;;;37.88;8.25;;;14.60;90.60;;;;;;5093348;28;20107;-77
2023/12/24 03:12:05;;;;;;;39.28;8.30;;;14.60;90.70;;;;;;5075287;28;20107;-78
2023/12/24 03:14:31;;;;;;;34.78;7.63;;;14.60;90.60;;;;;;5093211;28;20036;-77
2023/12/24 03:16:57;;;;;;;40.33;8.68;;;14.60;90.60;;;;;;5093615;28;20378;-77
2023/12/24 03:19:22;;;;;;;39.70;8.30;;;14.60;90.70;;;;;;5092888;28;20036;-78
2023/12/24 03:21:48;;;;;;;47.17;8.77;;;14.60;90.80;;;;;;5075068;28;20032;-77
2023/12/24 03:24:14;;;;;;;35.35;8.48;;;14.60;90.70;;;;;;5093043;28;20035;-77
2023/12/24 03:26:39;;;;;;;39.55;7.22;;;14.60;90.70;;;;;;5093532;28;20032;-78
2023/12/24 03:29:05;;;;;;;40.05;8.32;;;14.60;90.80;;;;;;5093203;28;20111;-79
2023/12/24 03:31:31;;;;;;;39.58;8.32;;;14.60;90.70;;;;;;5093185;28;20067;-78
2023/12/24 03:33:57;;;;;;;38.88;9.80;;;14.60;90.80;;;;;;5093162;28;20051;-77
2023/12/24 03:36:23;;;;;;;35.15;7.68;;;14.60;90.80;;;;;;5092888;28;20553;-78
2023/12/24 03:38:48;;;;;;;35.80;8.25;;;14.60;90.80;;;;;;5093179;28;20036;-78
2023/12/24 03:41:15;;;;;;;37.78;8.52;;;14.60;90.80;;;;;;5093024;28;20036;-79
2023/12/24 03:43:41;;;;;;;40.85;8.65;;;14.60;90.70;;;;;;5092825;28;20052;-78
2023/12/24 03:46:06;;;;;;;38.47;7.03;;;14.60;90.70;;;;;;5097720;28;20038;-79
2023/12/24 03:48:35;;;;;;;34.83;7.50;;;14.60;90.70;;;;;;5098447;28;20107;-77
2023/12/24 03:51:01;;;;;;;37.58;8.25;;;14.60;90.70;;;;;;5081077;28;20040;-77
2023/12/24 03:53:27;;;;;;;41.17;9.27;;;14.60;90.70;;;;;;5098686;28;20032;-77
2023/12/24 03:55:53;;;;;;;39.03;7.53;;;14.60;90.70;;;;;;5093504;28;20043;-77
2023/12/24 03:58:19;;;;;;;38.30;7.40;;;14.60;90.60;;;;;;5092336;28;20457;-77
2023/12/24 04:00:45;;;;;;;37.97;7.63;;;14.60;90.70;;;;;;5092451;28;20043;-79
2023/12/24 04:03:11;;;;;;;50.80;7.47;;;14.60;90.70;;;;;;5092576;28;20032;-79
2023/12/24 04:05:36;;;;;;;47.05;8.88;;;14.60;90.70;;;;;;5092443;28;20028;-77
2023/12/24 04:08:04;;;;;;;43.00;8.27;;;14.60;90.70;;;;;;5092444;28;20044;-78
2023/12/24 04:10:30;;;;;;;37.72;8.48;;;14.60;90.70;;;;;;5092229;28;20042;-77
2023/12/24 04:13:00;;;;;;;41.75;8.73;;;14.60;90.60;;;;;;5094303;28;20355;-77
2023/12/24 04:15:26;;;;;;;33.80;7.28;;;14.60;90.60;;;;;;5078554;28;20039;-75
2023/12/24 04:17:52;;;;;;;33.25;7.22;;;14.60;90.60;;;;;;5096671;28;20032;-78
2023/12/24 04:20:17;;;;;;;34.33;7.60;;;14.60;90.60;;;;;;5096353;28;20489;-79
2023/12/24 04:22:43;;;;;;;30.13;6.93;;;14.60;90.60;;;;;;5096560;28;20059;-78
2023/12/24 04:25:09;;;;;;;38.15;7.85;;;14.50;90.50;;;;;;5096635;28;20459;-79
2023/12/24 04:27:34;;;;;;;40.00;7.78;;;14.50;90.60;;;;;;5078185;28;20031;-77
2023/12/24 04:30:00;;;;;;;36.47;8.27;;;14.50;90.60;;;;;;5096430;28;20528;-80
2023/12/24 04:32:26;;;;;;;41.22;8.75;;;14.50;90.60;;;;;;5096101;28;20082;-79
2023/12/24 04:34:51;;;;;;;42.63;8.32;;;14.50;90.60;;;;;;5096293;28;20377;-77
2023/12/24 04:37:17;;;;;;;30.17;6.43;;;14.60;90.60;;;;;;5096229;28;20024;-78
2023/12/24 04:39:43;;;;;;;33.63;7.55;;;14.50;90.50;;;;;;5077677;28;20558;-79
2023/12/24 04:42:08;;;;;;;28.45;7.25;;;14.50;90.60;;;;;;5096091;28;20036;-77
2023/12/24 04:44:38;;;;;;;25.95;6.65;;;14.50;90.60;;;;;;5095688;28;20055;-79
2023/12/24 04:47:04;;;;;;;27.95;6.22;;;14.50;90.60;;;;;;5095824;28;20107;-78
2023/12/24 04:49:29;;;;;;;32.78;7.38;;;14.50;90.60;;;;;;5095955;28;20020;-79
2023/12/24 04:51:55;;;;;;;32.03;7.43;;;14.50;90.50;;;;;;5095957;28;20137;-78
2023/12/24 04:54:22;;;;;;;34.45;6.63;;;14.50;90.40;;;;;;5095799;28;20453;-78
2023/12/24 04:56:49;;;;;;;32.67;6.07;;;14.50;90.50;;;;;;5095905;28;20036;-78
2023/12/24 04:59:14;;;;;;;39.17;6.88;;;14.50;90.40;;;;;;5095459;28;20035;-78
2023/12/24 05:01:40;;;;;;;28.58;6.22;;;14.50;90.40;;;;;;5095917;28;20035;-77
2023/12/24 05:04:06;;;;;;;30.27;7.20;;;14.50;90.50;;;;;;5077991;28;20035;-78
2023/12/24 05:06:32;;;;;;;31.23;7.47;;;14.50;90.50;;;;;;5095765;28;20032;-78
2023/12/24 05:08:57;;;;;;;44.65;8.30;;;14.50;90.60;;;;;;5095751;28;20028;-78
2023/12/24 05:11:23;;;;;;;33.17;6.93;;;14.50;90.50;;;;;;5095631;28;20118;-77
2023/12/24 05:13:49;;;;;;;34.30;7.82;;;14.50;90.60;;;;;;5077068;28;20397;-79
2023/12/24 05:16:15;;;;;;;28.55;6.03;;;14.50;90.60;;;;;;5095355;28;20028;-78
2023/12/24 05:18:40;;;;;;;33.97;7.03;;;14.50;90.60;;;;;;5095430;28;20141;-79
2023/12/24 05:21:06;;;;;;;26.58;6.43;;;14.50;90.70;;;;;;5095322;28;20047;-77
2023/12/24 05:23:32;;;;;;;30.27;6.78;;;14.50;90.60;;;;;;5094421;28;20590;-78
2023/12/24 05:25:58;;;;;;;36.28;8.43;;;14.50;90.70;;;;;;5095028;28;20083;-78
2023/12/24 05:28:23;;;;;;;36.05;6.68;;;14.50;90.70;;;;;;5096126;28;20082;-78
2023/12/24 05:30:49;;;;;;;25.00;6.22;;;14.50;90.70;;;;;;5098356;28;20515;-78
2023/12/24 05:33:15;;;;;;;35.40;7.38;;;14.50;90.70;;;;;;5096015;28;20028;-77
2023/12/24 05:35:40;;;;;;;39.55;6.97;;;14.50;90.70;;;;;;5094834;28;20060;-79
2023/12/24 05:38:06;;;;;;;35.22;7.18;;;14.50;90.70;;;;;;5095200;28;20474;-78
2023/12/24 05:40:32;;;;;;;35.72;6.97;;;14.50;90.80;;;;;;5095257;28;20115;-77
2023/12/24 05:42:58;;;;;;;41.05;7.43;;;14.50;90.80;;;;;;5095040;28;20044;-78
2023/12/24 05:45:24;;;;;;;31.10;7.50;;;14.50;90.80;;;;;;5094680;28;20028;-78
2023/12/24 05:47:50;;;;;;;33.50;8.15;;;14.50;90.70;;;;;;5094849;28;20539;-78
2023/12/24 05:50:15;;;;;;;33.65;7.35;;;14.50;90.80;;;;;;5094907;28;20028;-78
2023/12/24 05:52:41;;;;;;;39.28;7.75;;;14.50;90.80;;;;;;5094660;28;20032;-78
2023/12/24 05:55:08;;;;;;;41.70;7.15;;;14.50;90.70;;;;;;5094940;28;20086;-79
2023/12/24 05:57:34;;;;;;;29.70;6.43;;;14.50;90.70;;;;;;5094700;28;20036;-78
2023/12/24 06:00:00;;;;;;;33.60;7.63;;;14.50;90.70;;;;;;5094546;28;20040;-79
2023/12/24 06:02:26;;;;;;;37.35;8.10;;;14.50;90.70;;;;;;5094662;28;20028;-78
2023/12/24 06:04:51;;;;;;;37.70;7.45;;;14.50;90.70;;;;;;5094612;28;20043;-78
2023/12/24 06:07:17;;;;;;;26.58;7.38;;;14.50;90.70;;;;;;5076335;28;20060;-80
2023/12/24 06:09:43;;;;;;;24.92;5.80;;;14.50;90.70;;;;;;5094415;28;20024;-79
2023/12/24 06:12:08;;;;;;;37.40;7.60;;;14.50;90.70;;;;;;5094297;28;20470;-78
2023/12/24 06:14:34;;;;;;;35.33;7.22;;;14.50;90.70;;;;;;5075794;28;20127;-77
2023/12/24 06:17:00;;;;;;;30.95;6.95;;;14.40;90.70;;;;;;5094416;28;20039;-79
2023/12/24 06:19:26;;;;;;;29.45;6.60;;;14.40;90.60;;;;;;5076016;28;20443;-79
2023/12/24 06:21:52;;;;;;;39.05;7.43;;;14.40;90.60;;;;;;5094474;28;20036;-79
2023/12/24 06:24:20;;;;;;;33.03;6.68;;;14.50;90.60;;;;;;5094484;28;20099;-79
2023/12/24 06:26:49;;;;;;;36.10;7.82;;;14.40;90.60;;;;;;5099031;28;20059;-77
2023/12/24 06:29:15;;;;;;;37.60;8.20;;;14.40;90.60;;;;;;5098489;28;20028;-80
2023/12/24 06:31:41;;;;;;;39.15;7.90;;;14.50;90.60;;;;;;5100488;28;20380;-77
2023/12/24 06:34:06;;;;;;;37.33;8.13;;;14.50;90.50;;;;;;5097742;28;20077;-79
2023/12/24 06:36:32;;;;;;;34.30;7.78;;;14.50;90.50;;;;;;5076292;28;20047;-77
2023/12/24 06:38:58;;;;;;;34.50;8.20;;;14.50;90.40;;;;;;5095607;28;20111;-79
2023/12/24 06:41:24;;;;;;;35.90;9.25;;;14.50;90.50;;;;;;5093890;28;20040;-78
2023/12/24 06:43:50;;;;;;;28.70;7.53;;;14.50;90.50;;;;;;5093849;28;20568;-79
2023/12/24 06:46:16;;;;;;;33.88;8.07;;;14.50;90.60;;;;;;5093613;28;20028;-78
2023/12/24 06:48:41;;;;;;;34.70;8.07;;;14.50;90.50;;;;;;5093538;28;20442;-78
2023/12/24 06:51:07;;;;;;;37.05;7.47;;;14.50;90.50;;;;;;5093974;28;20063;-79
2023/12/24 06:53:33;;;;;;;29.35;7.03;;;14.50;90.50;;;;;;5075649;28;20110;-78
2023/12/24 06:55:59;;;;;;;26.02;6.65;;;14.50;90.40;;;;;;5093841;28;20536;-79
2023/12/24 06:58:25;;;;;;;34.75;7.72;;;14.50;90.40;;;;;;5075364;28;20032;-78
2023/12/24 07:00:50;;;;;;;31.92;7.50;;;14.50;90.30;;;;;;5094538;28;20094;-78
2023/12/24 07:03:17;;;;;;;33.65;6.70;;;14.50;90.30;;;;;;5083757;28;20363;-79
2023/12/24 07:05:43;;;;;;;33.38;6.45;;;14.50;90.30;;;;;;5097029;28;20036;-77
2023/12/24 07:08:09;;;;;;;33.92;7.18;;;14.50;90.30;;;;;;5093429;28;20032;-79
2023/12/24 07:10:35;;;;;;;32.42;7.30;;;14.50;90.30;;;;;;5093041;28;20040;-80
2023/12/24 07:13:01;;;;;;;28.10;6.50;;;14.50;90.30;;;;;;5093124;28;20107;-80
2023/12/24 07:15:27;;;;;;;32.95;7.47;;;14.50;90.20;;;;;;5093144;28;20097;-77
2023/12/24 07:17:53;;;;;;;35.25;6.90;;;14.50;90.30;;;;;;5093021;28;20500;-77
2023/12/24 07:20:18;;;;;;;27.13;6.70;;;14.50;90.20;;;;;;5093259;28;20040;-79
2023/12/24 07:22:44;;;;;;;33.53;7.38;;;14.60;90.20;;;;;;5075141;28;20039;-80
2023/12/24 07:25:10;;;;;;;30.70;6.47;;;14.60;90.20;;;;;;5093138;28;20040;-79
2023/12/24 07:27:36;;;;;;;33.88;6.78;;;14.60;90.20;;;;;;5074906;28;20116;-78
2023/12/24 07:30:02;;;;;;;32.88;7.20;;;14.60;90.10;;;;;;5093366;28;20103;-78
2023/12/24 07:32:27;;;;;;;32.38;6.78;;;14.60;90.10;;;;;;5092817;28;20032;-79
2023/12/24 07:34:55;;;;;;;29.20;6.63;;;14.60;90.10;;;;;;5093065;28;20036;-79
2023/12/24 07:37:21;;;;;;;37.03;7.57;;;14.60;90.20;;;;;;5092889;28;20066;-80
2023/12/24 07:39:47;;;;;;;32.92;6.82;;;14.60;90.10;;;;;;5092627;28;20071;-79
2023/12/24 07:42:12;;;;;;;28.83;7.60;;;14.60;90.10;;;;;;5074882;28;20024;-80
2023/12/24 07:44:38;;;;;;;32.95;7.72;;;14.70;90.20;;;;;;5075430;28;20044;-79
2023/12/24 07:47:04;;;;;;;40.83;7.75;;;14.70;90.10;;;;;;5092854;28;20509;-80
2023/12/24 07:49:29;;;;;;;31.80;6.97;;;14.70;90.10;;;;;;5092579;28;20107;-77
2023/12/24 07:51:55;;;;;;;37.22;7.57;;;14.70;90.10;;;;;;5092807;28;20036;-79
2023/12/24 07:54:21;;;;;;;30.73;8.15;;;14.80;90.10;;;;;;5074390;28;20063;-79
2023/12/24 07:56:47;;;;;;;39.20;8.55;;;14.80;90.10;;;;;;5092520;28;20032;-79
2023/12/24 07:59:12;;;;;;;33.05;8.38;;;14.80;90.10;;;;;;5074269;28;20370;-78
2023/12/24 08:01:38;;;;;;;30.73;7.70;;;14.80;90.00;;;;;;5092500;28;20059;-80
2023/12/24 08:04:04;;;;;;;36.70;8.30;;;14.90;90.10;;;;;;5092607;28;20051;-79
2023/12/24 08:06:30;;;;;;;37.72;9.93;;;14.90;90.00;;;;;;5092508;28;20070;-80
2023/12/24 08:08:57;;;;;;;37.03;9.82;;;14.90;90.00;;;;;;5092238;28;20428;-80
2023/12/24 08:11:22;;;;;;;39.47;11.27;;;14.90;90.00;;;;;;5092276;28;20178;-79
2023/12/24 08:13:48;;;;;;;42.22;9.93;;;14.90;90.00;;;;;;5092547;28;20059;-79
2023/12/24 08:16:14;;;;;;;39.00;10.73;;;14.90;90.00;;;;;;5092692;28;20394;-80
2023/12/24 08:18:40;;;;;;;37.05;9.88;;;14.90;90.00;;;;;;5092465;28;20036;-79
2023/12/24 08:21:07;;;;;;;37.50;9.20;;;14.90;90.10;;;;;;5091959;28;20471;-79
2023/12/24 08:23:33;;;;;;;38.22;10.00;;;14.90;90.10;;;;;;5091999;28;20070;-79
2023/12/24 08:25:59;;;;;;;38.63;10.32;;;15.00;90.10;;;;;;5092155;28;20078;-80
2023/12/24 08:28:24;;;;;;;38.10;10.00;;;15.00;90.10;;;;;;5092326;28;20028;-79
2023/12/24 08:30:50;;;;;;;38.10;10.35;;;15.00;90.10;;;;;;5092146;28;20036;-79
2023/12/24 08:33:16;;;;;;;33.05;9.73;;;15.00;90.00;;;;;;5094168;28;20036;-78
2023/12/24 08:35:41;;;;;;;35.60;10.25;;;15.10;90.00;;;;;;5097503;28;20035;-78
2023/12/24 08:38:07;;;;;;;32.60;9.98;;;15.10;90.00;;;;;;5092085;28;20040;-79
2023/12/24 08:40:33;;;;;;;39.10;10.00;;;15.10;90.00;;;;;;5092157;28;20040;-78
2023/12/24 08:42:58;;;;;;;37.85;9.40;;;15.20;90.00;;;;;;5092245;28;20063;-79
2023/12/24 08:45:24;;;;;;;36.42;9.05;;;15.20;89.90;;;;;;5092262;28;20028;-80
2023/12/24 08:47:50;;;;;;;36.95;9.88;;;15.20;89.70;;;;;;5092379;28;20090;-79
2023/12/24 08:50:16;;;;;;;45.80;10.30;;;15.20;89.70;;;;;;5092058;28;20032;-80
2023/12/24 08:52:42;;;;;;;36.85;9.43;;;15.20;89.50;;;;;;5091788;28;20036;-79
2023/12/24 08:55:08;;;;;;;37.55;9.05;;;15.20;89.50;;;;;;5092275;28;20146;-80
2023/12/24 08:57:34;;;;;;;32.17;8.88;;;15.20;89.60;;;;;;5092031;28;20032;-80
2023/12/24 09:00:00;;;;;;;45.67;9.30;;;15.20;89.50;;;;;;5095422;28;20038;-80
2023/12/24 09:02:25;;;;;;;38.60;10.40;;;15.20;89.50;;;;;;5096123;28;20103;-78
2023/12/24 09:04:51;;;;;;;61.13;18.52;;;15.20;89.60;;;;;;5096105;28;20036;-79
2023/12/24 09:07:17;;;;;;;52.55;16.85;;;15.30;89.70;;;;;;5096008;28;20040;-80
2023/12/24 09:09:43;;;;;;;48.45;12.65;;;15.30;89.60;;;;;;5095738;28;20028;-80
2023/12/24 09:12:09;;;;;;;50.10;13.00;;;15.40;89.50;;;;;;5095842;28;20107;-80
2023/12/24 09:14:35;;;;;;;33.50;8.15;;;15.40;89.40;;;;;;5095554;28;20059;-80
2023/12/24 09:17:01;;;;;;;38.45;10.63;;;15.40;89.20;;;;;;5095438;28;20466;-80
2023/12/24 09:19:26;;;;;;;33.97;7.85;;;15.40;89.20;;;;;;5098605;28;20082;-77
2023/12/24 09:21:52;;;;;;;36.10;9.25;;;15.40;88.90;;;;;;5098323;28;20405;-81
2023/12/24 09:24:18;;;;;;;41.17;8.68;;;15.50;88.90;;;;;;5095586;28;20029;-81
2023/12/24 09:26:43;;;;;;;28.83;8.38;;;15.40;88.60;;;;;;5094923;28;20031;-80
2023/12/24 09:29:11;;;;;;;34.70;8.52;;;15.50;88.60;;;;;;5095915;28;20028;-79
2023/12/24 09:31:39;;;;;;;33.10;8.30;;;15.50;88.30;;;;;;5094794;28;20038;-80
2023/12/24 09:34:06;;;;;;;36.17;8.93;;;15.50;88.10;;;;;;5095075;28;20060;-79
2023/12/24 09:36:32;;;;;;;38.40;8.88;;;15.60;88.10;;;;;;5076740;28;20036;-79
2023/12/24 09:38:57;;;;;;;39.85;9.38;;;15.60;87.90;;;;;;5095362;28;20389;-80
2023/12/24 09:41:23;;;;;;;35.38;9.82;;;15.60;88.00;;;;;;5095828;28;20142;-79
2023/12/24 09:43:49;;;;;;;34.55;9.23;;;15.60;87.90;;;;;;5094878;28;20453;-80
2023/12/24 09:46:16;;;;;;;28.02;7.85;;;15.60;87.80;;;;;;5076797;28;20059;-79
2023/12/24 09:48:42;;;;;;;32.17;8.35;;;15.70;87.70;;;;;;5094477;28;20339;-79
2023/12/24 09:51:08;;;;;;;30.30;7.93;;;15.70;87.70;;;;;;5076625;28;20039;-79
2023/12/24 09:53:34;;;;;;;28.42;8.05;;;15.80;87.60;;;;;;5095170;28;20438;-78
2023/12/24 09:55:59;;;;;;;39.72;9.85;;;15.80;87.60;;;;;;5095319;28;20047;-78
2023/12/24 09:58:25;;;;;;;35.42;9.82;;;15.90;87.50;;;;;;5095307;28;20477;-78
2023/12/24 10:00:51;;;;;;;42.50;10.48;;;15.90;87.40;;;;;;5094492;28;20541;-79
2023/12/24 10:03:16;;;;;;;39.72;8.07;;;15.90;87.10;;;;;;5094617;28;20497;-80
2023/12/24 10:06:02;;;;;;;33.35;7.57;;;15.90;87.00;;;;;;5094637;28;20130;-79
2023/12/24 10:08:29;;;;;;;36.33;8.27;;;16.00;86.90;;;;;;5096332;28;20031;-81
2023/12/24 10:10:54;;;;;;;34.78;8.63;;;16.00;86.90;;;;;;5102940;28;20028;-78
2023/12/24 10:13:21;;;;;;;31.92;8.40;;;16.00;86.80;;;;;;5107782;28;20453;-79
2023/12/24 10:15:47;;;;;;;35.30;8.23;;;16.00;86.70;;;;;;5097946;28;20032;-79
2023/12/24 10:18:19;;;;;;;34.08;9.00;;;16.10;86.60;;;;;;5094389;28;20036;-80
2023/12/24 10:20:46;;;;;;;29.20;6.55;;;16.10;86.60;;;;;;5094476;28;20047;-79
2023/12/24 10:23:12;;;;;;;34.45;6.85;;;16.10;86.50;;;;;;5094553;28;20036;-79
2023/12/24 10:25:37;;;;;;;23.55;6.93;;;16.10;86.30;;;;;;5094814;28;20032;-80
2023/12/24 10:28:07;;;;;;;29.13;6.43;;;16.10;86.10;;;;;;5094500;28;20028;-80
2023/12/24 10:30:34;;;;;;;25.10;6.10;;;16.10;86.00;;;;;;5093839;28;20501;-80
2023/12/24 10:33:08;;;;;;;27.42;6.22;;;16.00;85.70;;;;;;5093856;28;20023;-79
2023/12/24 10:35:34;;;;;;;;;;;16.00;85.60;;;;;;5075932;28;20040;-81
2023/12/24 10:38:13;;;;;;;33.25;7.63;;;16.00;85.70;;;;;;5094032;28;19990;-79
2023/12/24 10:40:39;;;;;;;28.75;6.65;;;16.00;85.70;;;;;;5093529;28;20044;-80
2023/12/24 10:43:05;;;;;;;27.27;5.82;;;16.10;85.40;;;;;;5093570;28;20098;-80
2023/12/24 10:45:30;;;;;;;28.25;6.55;;;16.00;85.10;;;;;;5093373;28;20044;-79
2023/12/24 10:47:56;;;;;;;33.05;8.02;;;16.10;85.00;;;;;;5075504;28;20032;-80
2023/12/24 10:50:22;;;;;;;29.92;6.75;;;16.20;84.90;;;;;;5093482;28;20043;-80
2023/12/24 10:52:48;;;;;;;29.50;6.38;;;16.20;84.70;;;;;;5093555;28;20024;-81
2023/12/24 10:55:14;;;;;;;26.25;6.10;;;16.20;84.50;;;;;;5093253;28;20043;-80
2023/12/24 10:58:26;;;;;;;24.98;6.10;;;16.30;84.50;;;;;;5093225;28;20024;-80
2023/12/24 11:00:52;;;;;;;33.67;5.85;;;16.30;84.50;;;;;;5038018;28;20075;-80
2023/12/24 11:03:41;;;;;;;27.40;7.13;;;16.20;84.30;;;;;;5093439;28;20134;-79
2023/12/24 11:06:09;;;;;;;30.70;6.75;;;16.20;84.60;;;;;;5093490;28;20557;-80
2023/12/24 11:08:35;;;;;;;28.27;6.03;;;16.20;84.30;;;;;;5092950;28;20047;-80
2023/12/24 11:11:06;;;;;;;27.52;5.57;;;16.10;84.30;;;;;;5093456;28;20028;-80
2023/12/24 11:13:32;;;;;;;26.77;5.38;;;16.10;84.70;;;;;;5093163;28;20071;-81
2023/12/24 11:15:59;;;;;;;30.30;5.60;;;16.10;85.10;;;;;;5093201;28;20028;-80
2023/12/24 11:18:47;;;;;;;26.10;6.55;;;16.00;84.50;;;;;;5093126;28;20036;-80
2023/12/24 11:21:15;;;;;;;25.65;5.70;;;16.00;84.80;;;;;;5092592;28;20413;-80
2023/12/24 11:23:42;;;;;;;30.88;7.32;;;16.00;84.40;;;;;;5092004;28;20408;-79
2023/12/24 11:26:32;;;;;;;25.45;5.22;;;16.10;84.20;;;;;;5092759;28;20032;-80
2023/12/24 11:29:22;;;;;;;26.30;5.53;;;16.10;84.60;;;;;;5093118;28;20064;-80
2023/12/24 11:31:48;;;;;;;25.20;5.20;;;16.10;84.70;;;;;;5092698;28;20024;-81
2023/12/24 11:34:31;;;;;;;30.00;6.57;;;16.20;83.90;;;;;;5074541;28;20131;-80
2023/12/24 11:37:03;;;;;;;24.13;5.32;;;16.20;83.90;;;;;;5093184;28;20028;-79
2023/12/24 11:40:00;;;;;;;32.50;6.68;;;16.30;83.70;;;;;;5092862;28;20028;-81
2023/12/24 11:42:42;;;;;;;34.00;6.05;;;16.20;83.70;;;;;;5074916;28;20028;-79
2023/12/24 11:45:29;;;;;;;26.23;5.47;;;16.30;83.30;;;;;;5097778;28;20043;-80
2023/12/24 11:47:55;;;;;;;30.20;5.78;;;16.30;82.90;;;;;;5101990;28;20118;-81
2023/12/24 11:50:21;;;;;;;25.88;5.65;;;16.30;82.70;;;;;;5096422;28;20350;-78
2023/12/24 11:52:48;;;;;;;33.65;6.72;;;16.30;82.70;;;;;;5074827;28;20036;-80
2023/12/24 11:55:23;;;;;;;34.33;5.93;;;16.30;82.50;;;;;;5092598;28;20031;-81
2023/12/24 11:57:49;;;;;;;37.55;7.80;;;16.40;82.50;;;;;;5092310;28;20591;-80
2023/12/24 12:00:23;;;;;;;33.38;6.90;;;16.40;82.40;;;;;;5092265;28;20559;-80
2023/12/24 12:02:58;;;;;;;26.40;6.20;;;16.40;82.20;;;;;;5092376;28;20024;-79
2023/12/24 12:05:24;;;;;;;27.75;6.30;;;16.40;82.20;;;;;;5092542;28;20032;-79
2023/12/24 12:07:51;;;;;;;25.85;5.70;;;16.40;82.30;;;;;;5092456;28;20032;-82
2023/12/24 12:10:17;;;;;;;25.48;5.93;;;16.40;82.50;;;;;;5074497;28;20082;-81
2023/12/24 12:12:43;;;;;;;32.15;6.15;;;16.40;82.50;;;;;;5092417;28;20070;-78
2023/12/24 12:15:10;;;;;;;27.52;5.97;;;16.30;82.40;;;;;;5092538;28;20032;-79
2023/12/24 12:17:36;;;;;;;28.95;5.68;;;16.20;82.70;;;;;;5092042;28;20032;-80
2023/12/24 12:20:03;;;;;;;30.65;6.00;;;16.20;82.80;;;;;;5092336;28;20090;-80
2023/12/24 12:22:29;;;;;;;35.13;6.30;;;16.20;83.30;;;;;;5092127;28;20028;-80
2023/12/24 12:24:54;;;;;;;34.28;6.00;;;16.10;83.20;;;;;;5092357;28;20393;-79
2023/12/24 12:27:20;;;;;;;35.20;7.20;;;16.10;83.40;;;;;;5092427;28;20035;-80
2023/12/24 12:29:46;;;;;;;29.70;7.05;;;16.10;83.50;;;;;;5092534;28;20028;-81
2023/12/24 12:32:11;;;;;;;34.10;6.38;;;16.10;83.70;;;;;;5091950;28;20039;-80
2023/12/24 12:34:39;;;;;;;39.13;7.82;;;16.10;83.60;;;;;;5095057;28;20103;-80